Latest Weather Observations for Swan Hill

IDV60801

Issued at 5:05 pm EDT Thursday 23 October 2014 (issued every 30 minutes, with the page automatically refreshed every 10 minutes)

About weather observations | Map of weather stations | Latest weather observations for VIC | Other Formats
Station Details ID: 077094 Name: SWAN HILL AERODROME Lat: -35.38 Lon: 143.54 Height: 71.0 m
Data from the previous 72 hours. | See also: Recent months at Swan Hill
Date/Time
EDT
Temp
°C
App
Temp
°C
Dew
Point
Rel
Hum
%
Delta-T
°C
Wind Press
QNH
hPa
Press
MSL
hPa
Rain
since 9 am
mm
Dir
 
Spd
km/h
Gust
km/h
Spd
kts
Gust
kts
23/05:00pm 35.7 30.0 0.8 11 17.6 W 20 28 11 15 1009.9 - 0.2
23/04:30pm 35.3 31.4 3.5 13 16.7 WSW 13 24 7 13 1010.0 - 0.2
23/04:00pm 36.1 33.0 5.4 15 16.7 WNW 11 22 6 12 1010.3 - 0.2
23/03:30pm 35.2 32.0 5.1 15 16.2 W 11 19 6 10 1010.7 - 0.2
23/03:00pm 34.8 32.2 6.3 17 15.6 SSW 9 19 5 10 1011.1 1011.1 0.2
23/02:30pm 34.8 32.8 7.0 18 15.4 SW 7 19 4 10 1011.6 - 0.2
23/02:00pm 33.5 31.6 7.5 20 14.4 S 7 13 4 7 1012.0 - 0.2
23/01:30pm 33.5 31.1 7.2 19 14.5 W 9 15 5 8 1012.4 - 0.2
23/01:00pm 32.1 29.6 8.2 22 13.3 NW 11 17 6 9 1012.8 - 0.2
23/12:30pm 30.9 29.4 8.6 25 12.4 NNW 6 11 3 6 1013.2 - 0.2
23/12:00pm 30.8 29.9 10.6 28 11.6 E 6 11 3 6 1013.5 1013.5 0.2
23/11:30am 28.5 27.2 11.3 34 9.9 E 9 15 5 8 1013.9 - 0.2
23/11:00am 27.3 26.0 11.4 37 9.1 SE 9 15 5 8 1014.2 - 0.0
23/10:30am 26.4 24.9 12.0 40 8.3 SE 11 17 6 9 1014.3 - 0.0
23/10:00am 24.5 22.7 12.1 46 7.1 ESE 13 19 7 10 1014.5 - 0.0
23/09:30am 23.0 20.9 12.3 51 6.1 ESE 15 20 8 11 1014.6 - 0.0
23/09:00am 21.4 18.9 12.2 55 5.2 ESE 17 24 9 13 1014.6 1014.8 0.0
23/08:30am 20.3 17.9 12.5 61 4.4 SE 17 24 9 13 1014.6 - 0.0
23/08:00am 18.8 15.8 12.1 65 3.7 SE 19 30 10 16 1014.6 - 0.0
23/07:30am 17.8 14.8 11.8 68 3.3 SE 19 30 10 16 1014.2 - 0.0
23/07:00am 16.4 13.9 11.2 71 2.8 SE 15 24 8 13 1014.1 - 0.0
23/06:30am 16.1 13.6 10.9 71 2.8 SE 15 20 8 11 1014.1 - 0.0
23/06:00am 16.6 14.0 10.8 68 3.1 SE 15 20 8 11 1014.0 1014.0 0.0
23/05:30am 16.5 14.3 10.9 69 3.0 SE 13 17 7 9 1013.8 - 0.0
23/05:00am 16.8 14.2 10.6 67 3.3 SSE 15 20 8 11 1013.7 - 0.0
23/04:30am 17.0 14.5 9.8 62 3.8 SSE 13 17 7 9 1013.7 - 0.0
23/04:00am 17.2 14.2 9.4 60 4.1 SSE 15 20 8 11 1013.7 - 0.0
23/03:30am 15.4 15.4 9.8 69 2.9 CALM 0 0 0 0 1013.4 - 0.0
23/03:00am 16.0 14.9 10.1 68 3.1 SE 6 7 3 4 1013.6 1013.6 0.0
23/02:30am 16.6 16.0 10.4 67 3.3 SE 4 6 2 3 1013.9 - 0.0
23/02:00am 17.6 16.0 10.1 61 4.0 SE 9 11 5 6 1014.0 - 0.0
23/01:30am 18.6 17.2 10.9 61 4.2 SE 9 11 5 6 1014.5 - 0.0
23/01:00am 19.9 18.4 10.7 55 5.0 SE 9 13 5 7 1014.7 - 0.0
23/12:30am 21.1 19.1 10.2 49 5.9 SE 11 13 6 7 1015.0 - 0.0
23/12:00am 22.4 19.9 9.7 44 6.9 ESE 13 17 7 9 1015.0 1015.1 0.0
 
Date/Time
EDT
Temp
°C
App
Temp
°C
Dew
Point
Rel
Hum
%
Delta-T
°C
Wind Press
QNH
hPa
Press
MSL
hPa
Rain
since 9 am
mm
Dir
 
Spd
km/h
Gust
km/h
Spd
kts
Gust
kts
22/11:30pm 23.5 21.4 9.8 41 7.5 ESE 11 17 6 9 1015.3 - 0.0
22/11:00pm 24.7 22.2 8.3 35 8.8 SE 11 15 6 8 1015.2 - 0.0
22/10:30pm 26.0 22.6 7.6 31 9.8 ESE 15 20 8 11 1014.9 - 0.0
22/10:00pm 25.9 22.1 7.5 31 9.8 E 17 26 9 14 1014.9 - 0.0
22/09:30pm 25.5 22.5 7.6 32 9.5 SSE 13 19 7 10 1015.7 - 0.0
22/09:00pm 27.0 22.5 6.1 26 10.9 SSE 19 32 10 17 1015.3 1015.5 0.0
22/08:30pm 27.1 23.5 6.6 27 10.8 SSE 15 22 8 12 1015.0 - 0.0
22/08:00pm 27.4 24.4 7.7 28 10.6 ESE 13 19 7 10 1014.3 - 0.0
22/07:30pm 27.6 24.3 8.0 29 10.6 SE 15 24 8 13 1013.7 - 0.0
22/07:00pm 28.1 24.0 8.0 28 10.9 SE 19 28 10 15 1013.5 - 0.0
22/06:30pm 27.8 23.9 9.4 31 10.2 E 20 28 11 15 1013.7 - 0.0
22/06:00pm 27.0 21.5 9.2 32 9.8 SW 28 48 15 26 1014.2 1014.1 0.0
22/05:47pm 26.8 17.8 10.4 35 9.2 WSW 48 69 26 37 1014.2 - 0.0
22/05:39pm 31.8 22.4 0.1 13 15.4 WSW 39 57 21 31 1013.7 - 0.0
22/05:36pm 32.5 24.3 -0.8 12 16.0 W 32 48 17 26 1013.7 - 0.0
22/05:30pm 33.6 31.3 4.8 16 15.3 ENE 6 7 3 4 1012.9 - 0.0
22/05:00pm 34.4 29.6 0.4 11 16.9 NE 15 20 8 11 1012.7 - 0.0
22/04:30pm 36.4 32.3 -0.5 9 18.3 NNE 11 19 6 10 1013.1 - 0.0
22/04:00pm 34.8 29.7 -1.9 9 17.6 N 15 24 8 13 1013.4 - 0.0
22/03:30pm 36.7 31.5 -2.7 8 18.9 NNE 15 28 8 15 1013.7 - 0.0
22/03:00pm 36.7 30.8 -1.1 9 18.6 NNE 20 33 11 18 1014.2 1014.1 0.0
22/02:30pm 36.3 30.8 0.6 10 18.0 NNE 19 28 10 15 1014.6 - 0.0
22/02:00pm 35.8 30.1 -0.4 10 17.9 N 19 28 10 15 1015.2 - 0.0
22/01:30pm 35.3 29.9 2.2 12 17.0 NNE 20 30 11 16 1015.7 - 0.0
22/01:00pm 34.2 29.3 4.2 15 15.8 NNE 19 26 10 14 1016.1 - 0.0
22/12:30pm 32.3 27.9 6.4 20 14.0 NNE 19 26 10 14 1016.8 - 0.0
22/12:00pm 33.4 28.3 7.6 20 14.3 NNE 24 33 13 18 1017.0 1017.1 0.0
22/11:30am 30.9 26.3 8.0 24 12.6 NNE 22 32 12 17 1017.3 - 0.0
22/11:00am 27.9 24.7 10.1 33 10.0 ENE 17 22 9 12 1017.6 - 0.0
22/10:30am 24.3 21.1 9.9 40 7.9 NE 17 24 9 13 1018.2 - 0.0
22/10:00am 22.2 19.3 9.6 44 6.8 ENE 15 22 8 12 1018.6 - 0.0
22/09:30am 21.8 18.1 9.5 45 6.6 NE 19 26 10 14 1018.7 - 0.0
22/09:00am 22.0 17.6 8.8 43 7.0 NNE 22 30 12 16 1018.6 1018.7 0.0
22/08:30am 20.5 17.2 9.7 50 5.8 NNE 17 20 9 11 1018.7 - 0.0
22/08:00am 19.6 16.8 10.1 54 5.1 ENE 15 20 8 11 1019.1 - 0.0
22/07:30am 19.1 17.2 10.4 57 4.7 E 11 15 6 8 1019.4 - 0.0
22/07:00am 19.0 15.8 9.8 55 4.9 NE 17 20 9 11 1018.9 - 0.0
22/06:30am 18.9 16.0 9.7 55 4.9 ENE 15 22 8 12 1018.9 - 0.0
22/06:00am 18.7 15.8 9.6 55 4.8 NE 15 19 8 10 1018.9 1018.8 0.0
22/05:30am 18.7 16.6 9.6 55 4.8 ENE 11 13 6 7 1019.0 - 0.0
22/05:00am 18.9 16.5 8.7 51 5.3 ENE 11 15 6 8 1018.7 - 0.0
22/04:30am 19.0 15.7 7.9 48 5.7 ENE 15 19 8 10 1018.6 - 0.0
22/04:00am 19.3 15.8 7.0 44 6.2 NNE 15 19 8 10 1018.9 - 0.0
22/03:30am 20.0 16.0 6.7 42 6.7 NE 17 24 9 13 1019.0 - 0.0
22/03:00am 19.0 16.7 7.6 47 5.8 E 9 17 5 9 1019.1 1019.2 0.0
22/02:30am 18.6 16.8 7.8 49 5.5 E 7 9 4 5 1019.5 - 0.0
22/02:00am 18.9 17.0 7.7 48 5.7 E 7 9 4 5 1019.7 - 0.0
22/01:30am 19.3 17.1 7.8 47 5.9 E 9 13 5 7 1020.0 - 0.0
22/01:00am 19.7 17.4 7.6 45 6.2 ENE 9 13 5 7 1020.2 - 0.0
22/12:30am 20.6 17.8 7.1 41 6.9 E 11 15 6 8 1020.4 - 0.0
22/12:00am 19.8 17.1 7.2 44 6.4 E 11 15 6 8 1020.6 1020.6 0.0
 
Date/Time
EDT
Temp
°C
App
Temp
°C
Dew
Point
Rel
Hum
%
Delta-T
°C
Wind Press
QNH
hPa
Press
MSL
hPa
Rain
since 9 am
mm
Dir
 
Spd
km/h
Gust
km/h
Spd
kts
Gust
kts
21/11:30pm 18.2 16.2 7.0 48 5.6 E 7 9 4 5 1020.8 - 0.0
21/11:00pm 18.5 16.1 7.2 47 5.7 ESE 9 11 5 6 1021.0 - 0.0
21/10:30pm 19.8 17.0 6.9 43 6.5 ESE 11 13 6 7 1021.1 - 0.0
21/10:00pm 20.5 18.2 7.4 42 6.7 ESE 9 13 5 7 1021.2 - 0.0
21/09:30pm 22.4 20.2 7.9 39 7.6 ESE 9 13 5 7 1021.3 - 0.0
21/09:00pm 23.5 21.0 8.0 37 8.2 ESE 11 13 6 7 1021.0 1021.0 0.0
21/08:30pm 24.8 21.7 7.3 32 9.2 ESE 13 17 7 9 1020.7 - 0.0
21/08:00pm 25.9 23.6 7.4 30 9.8 ESE 9 15 5 8 1020.7 - 0.0
21/07:30pm 27.9 25.3 7.6 27 10.9 ESE 11 13 6 7 1020.6 - 0.0
21/07:00pm 30.0 27.8 6.0 22 12.7 E 7 11 4 6 1020.4 - 0.0
21/06:30pm 30.5 27.2 4.7 19 13.4 ESE 11 15 6 8 1020.3 - 0.0
21/06:00pm 30.6 27.4 5.2 20 13.3 E 11 17 6 9 1020.4 1020.4 0.0
21/05:30pm 30.8 27.8 5.9 21 13.2 ESE 11 19 6 10 1020.3 - 0.0
21/05:00pm 31.4 28.2 5.2 19 13.8 ESE 11 20 6 11 1020.4 - 0.0
21/04:30pm 31.3 27.9 6.0 20 13.5 ESE 13 20 7 11 1020.6 - 0.0
21/04:00pm 31.5 28.2 6.3 20 13.5 E 13 19 7 10 1021.0 - 0.0
21/03:30pm 31.2 28.1 5.4 19 13.6 E 11 24 6 13 1021.3 - 0.0
21/03:00pm 30.9 27.8 7.1 22 12.9 E 13 24 7 13 1021.7 1021.6 0.0
21/02:30pm 29.7 26.5 7.0 24 12.2 E 13 19 7 10 1022.3 - 0.0
21/02:00pm 28.4 25.3 7.3 26 11.3 E 13 24 7 13 1022.7 - 0.0
21/01:30pm 27.9 24.6 7.9 28 10.8 E 15 24 8 13 1023.1 - 0.0
21/01:00pm 27.2 23.9 8.1 30 10.3 E 15 24 8 13 1023.4 - 0.0
21/12:30pm 26.1 22.8 8.2 32 9.7 E 15 24 8 13 1023.7 - 0.0
21/12:00pm 25.0 21.5 8.6 35 8.8 ENE 17 26 9 14 1024.0 1024.0 0.0
21/11:30am 24.5 21.3 8.4 36 8.6 ENE 15 22 8 12 1024.5 - 0.0
21/11:00am 22.8 18.9 8.7 40 7.5 NE 19 26 10 14 1024.6 - 0.0
21/10:30am 21.8 17.7 8.5 42 7.0 NE 20 28 11 15 1024.8 - 0.0
21/10:00am 20.1 16.0 8.6 47 6.0 NE 20 28 11 15 1024.7 - 0.0
21/09:30am 19.1 15.0 8.7 51 5.4 NE 20 32 11 17 1024.7 - 0.0
21/09:00am 17.5 13.5 8.3 54 4.7 ENE 19 26 10 14 1024.9 1024.9 0.0
21/08:30am 15.7 11.7 8.1 60 3.8 ENE 19 28 10 15 1024.9 - 0.0
21/08:00am 14.0 10.6 7.5 65 3.2 ENE 15 22 8 12 1024.6 - 0.0
21/07:30am 11.0 8.9 6.8 75 2.0 ESE 7 11 4 6 1024.2 - 0.0
21/07:00am 9.0 6.4 5.9 81 1.4 ESE 9 13 5 7 1024.1 - 0.0
21/06:30am 9.1 6.0 5.6 79 1.6 SE 11 15 6 8 1023.9 - 0.0
21/06:00am 9.7 6.3 5.8 77 1.8 ESE 13 17 7 9 1023.8 1023.8 0.0
21/05:30am 10.1 7.2 6.5 78 1.7 ESE 11 15 6 8 1023.7 - 0.0
21/05:00am 10.7 7.4 6.2 74 2.1 ESE 13 19 7 10 1023.5 - 0.0
21/04:30am 10.8 7.8 6.1 73 2.2 ESE 11 19 6 10 1023.5 - 0.0
21/04:00am 10.9 7.3 4.9 66 2.7 SE 13 17 7 9 1023.4 - 0.0
21/03:30am 11.5 8.1 5.9 68 2.6 ESE 13 20 7 11 1023.7 - 0.0
21/03:00am 11.6 7.9 4.5 61 3.2 SE 13 19 7 10 1023.8 1023.9 0.0
21/02:30am 12.5 8.9 5.1 60 3.4 SE 13 19 7 10 1023.7 - 0.0
21/02:00am 13.8 9.6 5.8 58 3.8 SE 17 24 9 13 1023.8 - 0.0
21/01:30am 14.1 10.6 5.4 56 4.1 SE 13 19 7 10 1024.2 - 0.0
21/01:00am 14.1 10.4 4.6 52 4.4 SSE 13 20 7 11 1024.4 - 0.0
21/12:30am 15.2 11.1 4.4 48 5.0 SE 15 22 8 12 1024.6 - 0.0
21/12:00am 16.1 11.6 4.0 44 5.6 SE 17 24 9 13 1024.7 1024.7 0.0
 
Date/Time
EDT
Temp
°C
App
Temp
°C
Dew
Point
Rel
Hum
%
Delta-T
°C
Wind Press
QNH
hPa
Press
MSL
hPa
Rain
since 9 am
mm
Dir
 
Spd
km/h
Gust
km/h
Spd
kts
Gust
kts
20/11:30pm 16.4 12.0 2.7 40 6.2 SE 15 20 8 11 1024.9 - 0.0
20/11:00pm 17.4 13.3 2.1 36 6.9 SE 13 20 7 11 1024.7 - 0.0
20/10:30pm 18.2 14.2 2.7 35 7.1 ESE 13 20 7 11 1024.5 - 0.0
20/10:00pm 18.9 14.9 2.9 34 7.4 SE 13 20 7 11 1024.5 - 0.0
20/09:30pm 18.3 15.0 2.6 35 7.2 ESE 9 11 5 6 1024.1 - 0.0
20/09:00pm 19.3 16.3 2.0 31 7.9 ESE 7 7 4 4 1023.8 1023.8 0.0
20/08:30pm 20.9 17.5 2.1 28 8.7 ESE 9 13 5 7 1023.3 - 0.0
20/08:00pm 22.2 18.8 2.1 26 9.4 ESE 9 13 5 7 1023.0 - 0.0
20/07:30pm 23.8 19.9 0.9 22 10.6 ESE 11 15 6 8 1022.7 - 0.0
20/07:00pm 25.3 20.9 0.2 19 11.7 ESE 13 20 7 11 1022.4 - 0.0
20/06:30pm 26.3 21.9 0.1 18 12.2 ESE 13 20 7 11 1022.4 - 0.0
20/06:00pm 27.0 23.1 1.2 18 12.3 ESE 11 19 6 10 1022.4 1022.4 0.0
20/05:30pm 28.1 23.0 -2.1 14 13.7 SE 15 26 8 14 1022.5 - 0.0

Other Formats:

Comma delimited format used in spreadsheet applications
http://www.bom.gov.au/fwo/IDV60801/IDV60801.94843.axf

JavaScript Object Notation format (JSON) in row-major order
http://www.bom.gov.au/fwo/IDV60801/IDV60801.94843.json